createdAt,value
2019-04-11T00:00:21.489Z,1007.92
2019-04-11T00:01:32.542Z,1007.91
2019-04-11T00:02:21.009Z,1007.94
2019-04-11T00:03:21.645Z,1007.94
2019-04-11T00:04:22.066Z,1007.94
2019-04-11T00:05:21.169Z,1007.93
2019-04-11T00:06:21.378Z,1007.93
2019-04-11T00:07:22.394Z,1007.98
2019-04-11T00:08:21.740Z,1008.00
2019-04-11T00:09:21.379Z,1008.02
2019-04-11T00:10:21.434Z,1007.98
2019-04-11T00:11:21.885Z,1007.97
2019-04-11T00:12:22.150Z,1008.02
2019-04-11T00:13:24.340Z,1008.01
2019-04-11T00:14:22.112Z,1008.00
2019-04-11T00:15:21.703Z,1008.00
2019-04-11T00:16:21.754Z,1007.96
2019-04-11T00:17:21.804Z,1007.99
2019-04-11T00:18:22.866Z,1008.02
2019-04-11T00:19:23.116Z,1007.99
2019-04-11T00:20:22.195Z,1007.99
2019-04-11T00:21:22.477Z,1008.00
2019-04-11T00:22:22.070Z,1007.99
2019-04-11T00:23:22.126Z,1007.98
2019-04-11T00:24:22.903Z,1008.02
2019-04-11T00:25:23.190Z,1008.07
2019-04-11T00:26:22.282Z,1008.03
2019-04-11T00:27:22.336Z,1008.03
2019-04-11T00:28:23.633Z,1008.05
2019-04-11T00:29:22.690Z,1008.04
2019-04-11T00:30:22.494Z,1008.08
2019-04-11T00:31:23.029Z,1008.01
2019-04-11T00:32:22.600Z,1008.04
2019-04-11T00:33:23.658Z,1008.09
2019-04-11T00:34:22.714Z,1008.02
2019-04-11T00:35:23.802Z,1008.05
2019-04-11T00:36:22.811Z,1008.00
2019-04-11T00:37:23.209Z,1008.02
2019-04-11T00:38:23.532Z,1008.04
2019-04-11T00:39:23.650Z,1008.03
2019-04-11T00:40:23.022Z,1008.04
2019-04-11T00:41:23.902Z,1008.05
2019-04-11T00:42:23.128Z,1008.08
2019-04-11T00:43:31.670Z,1008.08
2019-04-11T00:44:23.233Z,1008.03
2019-04-11T00:45:23.363Z,1008.03
2019-04-11T00:46:24.480Z,1008.02
2019-04-11T00:47:23.391Z,1008.00
2019-04-11T00:48:23.858Z,1008.01
2019-04-11T00:49:24.188Z,1007.98
2019-04-11T00:50:23.548Z,1007.98
2019-04-11T00:51:23.649Z,1008.05
2019-04-11T00:52:23.654Z,1008.01
2019-04-11T00:53:23.707Z,1008.06
2019-04-11T00:54:24.730Z,1007.97
2019-04-11T00:55:23.900Z,1007.97
2019-04-11T00:56:24.191Z,1007.97
2019-04-11T00:57:25.112Z,1007.96
2019-04-11T00:58:23.970Z,1008.00
2019-04-11T00:59:24.585Z,1007.96
2019-04-11T01:00:24.075Z,1007.96
2019-04-11T01:01:24.126Z,1008.00
2019-04-11T01:02:25.185Z,1008.01
2019-04-11T01:03:24.324Z,1008.03
2019-04-11T01:04:25.456Z,1008.03
2019-04-11T01:05:25.542Z,1008.02
2019-04-11T01:06:24.391Z,1008.04
2019-04-11T01:07:24.961Z,1008.05
2019-04-11T01:08:24.495Z,1008.05
2019-04-11T01:09:24.548Z,1008.04
2019-04-11T01:10:24.632Z,1008.00
2019-04-11T01:11:24.799Z,1008.00
2019-04-11T01:12:24.830Z,1008.02
2019-04-11T01:13:25.825Z,1008.00
2019-04-11T01:14:25.782Z,1008.03
2019-04-11T01:15:24.862Z,1008.06
2019-04-11T01:16:24.915Z,1008.06
2019-04-11T01:17:25.377Z,1008.06
2019-04-11T01:18:25.734Z,1008.04
2019-04-11T01:19:25.072Z,1008.00
2019-04-11T01:20:25.124Z,1008.06
2019-04-11T01:21:26.381Z,1008.09
2019-04-11T01:22:26.434Z,1008.07
2019-04-11T01:23:25.281Z,1008.09
2019-04-11T01:24:25.976Z,1008.08
2019-04-11T01:25:25.403Z,1008.11
2019-04-11T01:26:26.614Z,1008.09
2019-04-11T01:27:25.737Z,1008.07
2019-04-11T01:28:25.542Z,1008.11
2019-04-11T01:29:25.594Z,1008.08
2019-04-11T01:30:25.647Z,1008.13
2019-04-11T01:31:25.702Z,1008.14
2019-04-11T01:32:26.407Z,1008.12
2019-04-11T01:33:25.803Z,1008.12
2019-04-11T01:34:26.680Z,1008.13
2019-04-11T01:35:25.907Z,1008.13
2019-04-11T01:36:26.944Z,1008.13
2019-04-11T01:37:26.074Z,1008.14
2019-04-11T01:38:26.212Z,1008.13
2019-04-11T01:39:26.772Z,1008.18
2019-04-11T01:40:26.171Z,1008.16
2019-04-11T01:41:26.693Z,1008.15
2019-04-11T01:42:27.052Z,1008.14
2019-04-11T01:43:26.326Z,1008.12
2019-04-11T01:44:26.379Z,1008.15
2019-04-11T01:45:27.470Z,1008.19
2019-04-11T01:46:26.488Z,1008.17
2019-04-11T01:47:26.844Z,1008.17
2019-04-11T01:48:27.797Z,1008.16
2019-04-11T01:49:26.640Z,1008.14
2019-04-11T01:50:27.169Z,1008.17
2019-04-11T01:51:26.744Z,1008.22
2019-04-11T01:52:26.796Z,1008.21
2019-04-11T01:53:26.893Z,1008.24
2019-04-11T01:54:27.949Z,1008.23
2019-04-11T01:55:26.954Z,1008.25
2019-04-11T01:56:27.350Z,1008.27
2019-04-11T01:57:27.631Z,1008.27
2019-04-11T01:58:27.107Z,1008.23
2019-04-11T01:59:27.165Z,1008.23
2019-04-11T02:00:28.080Z,1008.22
2019-04-11T02:01:28.499Z,1008.23
2019-04-11T02:02:28.604Z,1008.28
2019-04-11T02:03:27.495Z,1008.26
2019-04-11T02:04:27.915Z,1008.27
2019-04-11T02:05:27.472Z,1008.27
2019-04-11T02:06:27.729Z,1008.27
2019-04-11T02:07:28.809Z,1008.29
2019-04-11T02:08:27.631Z,1008.31
2019-04-11T02:09:28.343Z,1008.27
2019-04-11T02:10:28.697Z,1008.26
2019-04-11T02:11:27.785Z,1008.25
2019-04-11T02:12:28.960Z,1008.29
2019-04-11T02:13:28.014Z,1008.31
2019-04-11T02:14:28.062Z,1008.32
2019-04-11T02:15:28.241Z,1008.31
2019-04-11T02:16:29.257Z,1008.33
2019-04-11T02:17:28.097Z,1008.34
2019-04-11T02:18:28.151Z,1008.35
2019-04-11T02:19:28.211Z,1008.36
2019-04-11T02:20:29.136Z,1008.35
2019-04-11T02:21:29.469Z,1008.34
2019-04-11T02:22:28.590Z,1008.35
2019-04-11T02:23:28.860Z,1008.36
2019-04-11T02:24:28.459Z,1008.40
2019-04-11T02:25:28.511Z,1008.40
2019-04-11T02:26:29.359Z,1008.33
2019-04-11T02:27:28.618Z,1008.40
2019-04-11T02:28:28.778Z,1008.37
2019-04-11T02:29:29.747Z,1008.40
2019-04-11T02:30:30.514Z,1008.40
2019-04-11T02:31:30.438Z,1008.38
2019-04-11T02:32:29.330Z,1008.37
2019-04-11T02:33:30.518Z,1008.41
2019-04-11T02:34:29.649Z,1008.36
2019-04-11T02:35:29.034Z,1008.38
2019-04-11T02:36:30.053Z,1008.40
2019-04-11T02:37:29.457Z,1008.39
2019-04-11T02:38:30.417Z,1008.36
2019-04-11T02:39:31.167Z,1008.43
2019-04-11T02:40:30.050Z,1008.46
2019-04-11T02:41:29.877Z,1008.44
2019-04-11T02:42:30.666Z,1008.42
2019-04-11T02:43:29.637Z,1008.48
2019-04-11T02:44:45.476Z,1008.50
2019-04-11T02:45:42.868Z,1008.49
2019-04-11T02:46:40.755Z,1008.52
2019-04-11T02:47:32.457Z,1008.51
2019-04-11T02:48:31.037Z,1008.56
2019-04-11T02:49:31.173Z,1008.54
2019-04-11T02:50:30.042Z,1008.56
2019-04-11T02:51:31.177Z,1008.59
2019-04-11T02:52:31.175Z,1008.58
2019-04-11T02:53:30.777Z,1008.60
2019-04-11T02:54:30.666Z,1008.60
2019-04-11T02:55:31.672Z,1008.61
2019-04-11T02:56:31.227Z,1008.62
2019-04-11T02:57:30.189Z,1008.63
2019-04-11T02:58:31.754Z,1008.64
2019-04-11T02:59:30.579Z,1008.63
2019-04-11T03:00:31.142Z,1008.60
2019-04-11T03:01:31.934Z,1008.55
2019-04-11T03:02:30.866Z,1008.65
2019-04-11T03:03:32.091Z,1008.64
2019-04-11T03:04:31.075Z,1008.65
2019-04-11T03:05:31.027Z,1008.65
2019-04-11T03:06:31.091Z,1008.64
2019-04-11T03:07:32.005Z,1008.68
2019-04-11T03:08:34.215Z,1008.65
2019-04-11T03:09:31.359Z,1008.69
2019-04-11T03:10:31.397Z,1008.67
2019-04-11T03:11:32.541Z,1008.73
2019-04-11T03:12:31.961Z,1008.69
2019-04-11T03:13:33.186Z,1008.70
2019-04-11T03:14:46.156Z,1008.70
2019-04-11T03:15:44.619Z,1008.67
2019-04-11T03:16:42.941Z,1008.69
2019-04-11T03:17:36.139Z,1008.70
2019-04-11T03:18:49.430Z,1008.68
2019-04-11T03:19:43.890Z,1008.74
2019-04-11T03:20:39.560Z,1008.70
2019-04-11T03:21:36.746Z,1008.73
2019-04-11T03:22:32.154Z,1008.69
2019-04-11T03:23:33.036Z,1008.76
2019-04-11T03:24:33.447Z,1008.73
2019-04-11T03:25:33.054Z,1008.72
2019-04-11T03:26:33.439Z,1008.72
2019-04-11T03:27:32.590Z,1008.77
2019-04-11T03:28:33.504Z,1008.74
2019-04-11T03:29:33.758Z,1008.73
2019-04-11T03:30:51.829Z,1008.79
2019-04-11T03:32:10.920Z,1008.79
2019-04-11T03:33:17.283Z,1008.79
2019-04-11T03:36:28.621Z,1008.86
2019-04-11T03:37:55.128Z,1008.85
2019-04-11T03:38:55.232Z,1008.90
2019-04-11T03:39:50.776Z,1008.90
2019-04-11T03:40:50.512Z,1008.91
2019-04-11T03:41:53.566Z,1008.92
2019-04-11T03:42:49.460Z,1008.95
2019-04-11T03:43:45.169Z,1008.92
2019-04-11T03:44:38.346Z,1008.94
2019-04-11T03:45:52.467Z,1008.98
2019-04-11T03:46:49.207Z,1009.02
2019-04-11T03:47:44.812Z,1009.01
2019-04-11T03:48:43.729Z,1009.01
2019-04-11T03:49:43.250Z,1009.01
2019-04-11T03:50:34.895Z,1009.03
2019-04-11T03:51:33.987Z,1009.01
2019-04-11T03:52:34.627Z,1009.06
2019-04-11T03:53:34.258Z,1009.07
2019-04-11T03:54:34.230Z,1009.10
2019-04-11T03:55:34.867Z,1009.08
2019-04-11T03:56:34.569Z,1009.08
2019-04-11T03:57:34.258Z,1009.09
2019-04-11T03:58:33.607Z,1009.06
2019-04-11T03:59:34.307Z,1009.10
2019-04-11T04:00:36.355Z,1009.13
2019-04-11T04:01:34.100Z,1009.13
2019-04-11T04:02:34.837Z,1009.12
2019-04-11T04:03:34.233Z,1009.12
2019-04-11T04:04:35.258Z,1009.16
2019-04-11T04:05:36.576Z,1009.18
2019-04-11T04:06:33.726Z,1009.19
2019-04-11T04:07:34.033Z,1009.25
2019-04-11T04:08:34.350Z,1009.20
2019-04-11T04:09:35.273Z,1009.22
2019-04-11T04:10:34.099Z,1009.25
2019-04-11T04:11:34.766Z,1009.26
2019-04-11T04:12:35.631Z,1009.23
2019-04-11T04:13:34.544Z,1009.24
2019-04-11T04:14:34.702Z,1009.27
2019-04-11T04:15:47.184Z,1009.23
2019-04-11T04:16:40.775Z,1009.27
2019-04-11T04:17:35.278Z,1009.30
2019-04-11T04:18:36.103Z,1009.28
2019-04-11T04:19:35.392Z,1009.28
2019-04-11T04:20:35.227Z,1009.29
2019-04-11T04:21:35.249Z,1009.29
2019-04-11T04:22:35.609Z,1009.28
2019-04-11T04:23:35.938Z,1009.31
2019-04-11T04:24:39.327Z,1009.29
2019-04-11T04:25:34.834Z,1009.34
2019-04-11T04:26:35.551Z,1009.37
2019-04-11T04:27:35.397Z,1009.36
2019-04-11T04:28:35.750Z,1009.36
2019-04-11T04:29:37.183Z,1009.40
2019-04-11T04:30:36.001Z,1009.42
2019-04-11T04:31:35.172Z,1009.40
2019-04-11T04:32:36.227Z,1009.41
2019-04-11T04:33:36.108Z,1009.45
2019-04-11T04:34:36.049Z,1009.47
2019-04-11T04:35:38.811Z,1009.51
2019-04-11T04:36:35.247Z,1009.53
2019-04-11T04:37:35.296Z,1009.49
2019-04-11T04:38:35.579Z,1009.53
2019-04-11T04:39:36.956Z,1009.52
2019-04-11T04:40:49.954Z,1009.58
2019-04-11T04:41:42.922Z,1009.57
2019-04-11T04:42:40.383Z,1009.57
2019-04-11T04:43:36.512Z,1009.65
2019-04-11T04:44:35.655Z,1009.61
2019-04-11T04:45:54.511Z,1009.62
2019-04-11T04:46:52.780Z,1009.65
2019-04-11T04:47:42.201Z,1009.65
2019-04-11T04:48:35.859Z,1009.70
2019-04-11T04:49:36.511Z,1009.69
2019-04-11T04:50:36.694Z,1009.73
2019-04-11T04:51:37.265Z,1009.72
2019-04-11T04:52:38.032Z,1009.74
2019-04-11T04:53:36.246Z,1009.74
2019-04-11T04:54:36.536Z,1009.80
2019-04-11T04:55:36.765Z,1009.78
2019-04-11T04:56:37.514Z,1009.79
2019-04-11T04:57:37.652Z,1009.84
2019-04-11T04:58:37.881Z,1009.88
2019-04-11T04:59:38.398Z,1009.83
2019-04-11T05:00:37.646Z,1009.90
2019-04-11T05:01:37.349Z,1009.88
2019-04-11T05:02:37.362Z,1009.89
2019-04-11T05:03:37.931Z,1009.92
2019-04-11T05:04:38.168Z,1009.96
2019-04-11T05:05:38.308Z,1009.95
2019-04-11T05:06:36.782Z,1009.93
2019-04-11T05:07:40.220Z,1009.96
2019-04-11T05:08:36.877Z,1009.91
2019-04-11T05:09:38.364Z,1009.94
2019-04-11T05:10:38.160Z,1009.92
2019-04-11T05:11:38.278Z,1009.91
2019-04-11T05:12:38.629Z,1009.95
2019-04-11T05:13:38.644Z,1009.97
2019-04-11T05:14:37.381Z,1009.98
2019-04-11T05:15:38.421Z,1009.97
2019-04-11T05:16:37.633Z,1009.98
2019-04-11T05:17:38.697Z,1010.02
2019-04-11T05:18:37.386Z,1010.00
2019-04-11T05:19:38.381Z,1010.06
2019-04-11T05:20:38.529Z,1009.99
2019-04-11T05:21:37.544Z,1010.06
2019-04-11T05:22:37.587Z,1010.09
2019-04-11T05:23:37.640Z,1010.02
2019-04-11T05:24:38.857Z,1010.08
2019-04-11T05:25:38.842Z,1010.06
2019-04-11T05:26:37.792Z,1010.02
2019-04-11T05:27:37.924Z,1010.07
2019-04-11T05:28:37.894Z,1010.09
2019-04-11T05:29:37.944Z,1010.10
2019-04-11T05:30:37.995Z,1010.09
2019-04-11T05:31:38.728Z,1010.11
2019-04-11T05:32:38.097Z,1010.07
2019-04-11T05:33:39.111Z,1010.07
2019-04-11T05:34:39.276Z,1010.08
2019-04-11T05:35:38.249Z,1010.11
2019-04-11T05:36:38.736Z,1010.11
2019-04-11T05:37:39.641Z,1010.16
2019-04-11T05:38:38.402Z,1010.21
2019-04-11T05:39:38.464Z,1010.13
2019-04-11T05:40:38.505Z,1010.15
2019-04-11T05:41:42.101Z,1010.17
2019-04-11T05:42:39.638Z,1010.18
2019-04-11T05:43:41.295Z,1010.22
2019-04-11T05:44:40.317Z,1010.20
2019-04-11T05:45:38.760Z,1010.24
2019-04-11T05:46:49.142Z,1010.22
2019-04-11T05:47:39.299Z,1010.22
2019-04-11T05:48:39.063Z,1010.20
2019-04-11T05:49:40.824Z,1010.24
2019-04-11T05:50:44.253Z,1010.27
2019-04-11T05:51:41.646Z,1010.29
2019-04-11T05:52:39.992Z,1010.28
2019-04-11T05:53:39.232Z,1010.28
2019-04-11T05:54:41.865Z,1010.30
2019-04-11T05:55:43.257Z,1010.28
2019-04-11T05:56:39.553Z,1010.31
2019-04-11T05:57:40.436Z,1010.30
2019-04-11T05:58:42.124Z,1010.32
2019-04-11T05:59:39.480Z,1010.29
2019-04-11T06:00:40.897Z,1010.29
2019-04-11T06:01:39.581Z,1010.28
2019-04-11T06:02:39.631Z,1010.30
2019-04-11T06:03:43.256Z,1010.33
2019-04-11T06:04:40.590Z,1010.31
2019-04-11T06:05:40.789Z,1010.35
2019-04-11T06:06:40.329Z,1010.38
2019-04-11T06:07:42.075Z,1010.35
2019-04-11T06:08:39.944Z,1010.38
2019-04-11T06:09:41.620Z,1010.40
2019-04-11T06:10:42.646Z,1010.41
2019-04-11T06:11:41.172Z,1010.41
2019-04-11T06:12:41.337Z,1010.45
2019-04-11T06:13:40.650Z,1010.40
2019-04-11T06:14:40.250Z,1010.41
2019-04-11T06:15:42.809Z,1010.44
2019-04-11T06:16:46.173Z,1010.42
2019-04-11T06:17:40.758Z,1010.41
2019-04-11T06:18:43.846Z,1010.43
2019-04-11T06:19:41.558Z,1010.45
2019-04-11T06:20:40.558Z,1010.46
2019-04-11T06:21:40.609Z,1010.49
2019-04-11T06:22:40.661Z,1010.43
2019-04-11T06:23:40.712Z,1010.45
2019-04-11T06:24:40.764Z,1010.47
2019-04-11T06:25:44.542Z,1010.50
2019-04-11T06:26:40.869Z,1010.43
2019-04-11T06:27:42.813Z,1010.44
2019-04-11T06:28:40.971Z,1010.46
2019-04-11T06:29:41.080Z,1010.45
2019-04-11T06:30:42.228Z,1010.49
2019-04-11T06:31:42.253Z,1010.49
2019-04-11T06:32:41.180Z,1010.56
2019-04-11T06:33:41.240Z,1010.49
2019-04-11T06:34:41.714Z,1010.51
2019-04-11T06:35:41.336Z,1010.50
2019-04-11T06:36:41.387Z,1010.55
2019-04-11T06:37:41.612Z,1010.54
2019-04-11T06:38:41.491Z,1010.52
2019-04-11T06:39:41.544Z,1010.57
2019-04-11T06:40:41.862Z,1010.62
2019-04-11T06:41:41.649Z,1010.62
2019-04-11T06:42:41.703Z,1010.55
2019-04-11T06:43:42.592Z,1010.57
2019-04-11T06:44:41.809Z,1010.59
2019-04-11T06:45:41.923Z,1010.66
2019-04-11T06:46:50.477Z,1010.63
2019-04-11T06:47:43.068Z,1010.59
2019-04-11T06:48:42.204Z,1010.63
2019-04-11T06:49:42.575Z,1010.68
2019-04-11T06:50:42.120Z,1010.67
2019-04-11T06:51:42.172Z,1010.68
2019-04-11T06:52:43.299Z,1010.71
2019-04-11T06:53:42.279Z,1010.70
2019-04-11T06:54:43.382Z,1010.68
2019-04-11T06:55:42.697Z,1010.68
2019-04-11T06:56:43.384Z,1010.69
2019-04-11T06:57:42.495Z,1010.70
2019-04-11T06:58:43.642Z,1010.70
2019-04-11T06:59:42.965Z,1010.72
2019-04-11T07:00:42.648Z,1010.73
2019-04-11T07:01:42.700Z,1010.70
2019-04-11T07:02:42.754Z,1010.72
2019-04-11T07:03:42.810Z,1010.70
2019-04-11T07:04:43.848Z,1010.71
2019-04-11T07:05:42.913Z,1010.70
2019-04-11T07:06:43.908Z,1010.71
2019-04-11T07:07:43.111Z,1010.71
2019-04-11T07:08:43.073Z,1010.71
2019-04-11T07:09:43.142Z,1010.73
2019-04-11T07:10:43.180Z,1010.69
2019-04-11T07:11:43.234Z,1010.68
2019-04-11T07:12:43.287Z,1010.73
2019-04-11T07:13:43.409Z,1010.74
2019-04-11T07:14:43.415Z,1010.73
2019-04-11T07:15:44.230Z,1010.73
2019-04-11T07:16:44.636Z,1010.73
2019-04-11T07:17:43.851Z,1010.76
2019-04-11T07:18:44.226Z,1010.74
2019-04-11T07:19:44.484Z,1010.74
2019-04-11T07:20:43.751Z,1010.72
2019-04-11T07:21:44.041Z,1010.77
2019-04-11T07:22:43.822Z,1010.77
2019-04-11T07:23:44.670Z,1010.79
2019-04-11T07:24:43.930Z,1010.76
2019-04-11T07:25:45.075Z,1010.74
2019-04-11T07:26:44.036Z,1010.79
2019-04-11T07:27:45.073Z,1010.78
2019-04-11T07:28:44.145Z,1010.78
2019-04-11T07:29:44.303Z,1010.75
2019-04-11T07:30:45.181Z,1010.75
2019-04-11T07:31:44.376Z,1010.73
2019-04-11T07:32:45.104Z,1010.69
2019-04-11T07:33:45.079Z,1010.79
2019-04-11T07:34:45.657Z,1010.77
2019-04-11T07:35:45.128Z,1010.73
2019-04-11T07:36:44.577Z,1010.75
2019-04-11T07:37:44.839Z,1010.77
2019-04-11T07:38:45.552Z,1010.82
2019-04-11T07:39:45.061Z,1010.76
2019-04-11T07:40:44.793Z,1010.86
2019-04-11T07:41:45.560Z,1010.88
2019-04-11T07:42:44.904Z,1010.77
2019-04-11T07:43:44.967Z,1010.86
2019-04-11T07:44:45.223Z,1010.88
2019-04-11T07:45:45.063Z,1010.83
2019-04-11T07:46:45.118Z,1010.80
2019-04-11T07:47:46.078Z,1010.83
2019-04-11T07:48:45.228Z,1010.88
2019-04-11T07:49:45.279Z,1010.86
2019-04-11T07:50:46.434Z,1010.84
2019-04-11T07:51:45.389Z,1010.92
2019-04-11T07:52:45.446Z,1010.89
2019-04-11T07:53:45.942Z,1010.86
2019-04-11T07:54:45.722Z,1010.87
2019-04-11T07:55:46.610Z,1010.92
2019-04-11T07:56:46.333Z,1010.90
2019-04-11T07:57:46.785Z,1010.88
2019-04-11T07:58:45.817Z,1010.91
2019-04-11T07:59:46.707Z,1010.90
2019-04-11T08:00:49.024Z,1010.92
2019-04-11T08:01:46.929Z,1010.88
2019-04-11T08:02:46.008Z,1010.90
2019-04-11T08:03:46.973Z,1010.85
2019-04-11T08:04:47.270Z,1010.86
2019-04-11T08:05:46.687Z,1010.88
2019-04-11T08:06:46.207Z,1010.91
2019-04-11T08:07:46.882Z,1010.88
2019-04-11T08:08:47.120Z,1010.88
2019-04-11T08:09:46.369Z,1010.84
2019-04-11T08:10:46.430Z,1010.93
2019-04-11T08:11:47.702Z,1010.90
2019-04-11T08:12:47.869Z,1010.89
2019-04-11T08:13:47.189Z,1010.91
2019-04-11T08:14:46.744Z,1010.88
2019-04-11T08:15:46.696Z,1010.90
2019-04-11T08:16:46.928Z,1010.92
2019-04-11T08:17:47.991Z,1010.84
2019-04-11T08:18:46.859Z,1010.90
2019-04-11T08:19:47.017Z,1010.95
2019-04-11T08:20:47.799Z,1010.91
2019-04-11T08:21:47.182Z,1010.90
2019-04-11T08:22:47.498Z,1010.86
2019-04-11T08:24:20.518Z,1010.95
2019-04-11T08:24:47.191Z,1010.97
2019-04-11T08:25:47.518Z,1010.96
2019-04-11T08:26:48.374Z,1010.96
2019-04-11T08:27:54.655Z,1011.00
2019-04-11T08:28:59.269Z,1010.96
2019-04-11T08:29:49.946Z,1010.99
2019-04-11T08:30:48.814Z,1010.98
2019-04-11T08:31:48.686Z,1010.95
2019-04-11T08:32:47.627Z,1010.93
2019-04-11T08:33:48.848Z,1011.01
2019-04-11T08:34:48.000Z,1010.94
2019-04-11T08:35:51.620Z,1011.07
2019-04-11T08:36:48.932Z,1011.00
2019-04-11T08:37:47.908Z,1010.92
2019-04-11T08:38:48.776Z,1010.97
2019-04-11T08:39:49.082Z,1010.95
2019-04-11T08:40:49.126Z,1011.02
2019-04-11T08:41:48.122Z,1010.96
2019-04-11T08:42:48.672Z,1011.05
2019-04-11T08:43:48.232Z,1011.00
2019-04-11T08:44:48.286Z,1011.04
2019-04-11T08:45:48.547Z,1011.11
2019-04-11T08:46:48.404Z,1011.08
2019-04-11T08:47:52.624Z,1011.01
2019-04-11T08:48:48.971Z,1011.03
2019-04-11T08:49:48.564Z,1010.99
2019-04-11T08:50:48.617Z,1011.08
2019-04-11T08:51:49.595Z,1011.02
2019-04-11T08:52:48.761Z,1011.03
2019-04-11T08:53:49.032Z,1011.08
2019-04-11T08:54:50.056Z,1011.01
2019-04-11T08:55:55.374Z,1011.07
2019-04-11T08:56:49.436Z,1011.03
2019-04-11T08:57:49.860Z,1011.02
2019-04-11T08:58:49.101Z,1011.00
2019-04-11T08:59:49.398Z,1010.96
2019-04-11T09:00:51.046Z,1011.03
2019-04-11T09:01:49.221Z,1010.98
2019-04-11T09:02:49.275Z,1010.94
2019-04-11T09:04:01.342Z,1010.93
2019-04-11T09:04:50.318Z,1011.00
2019-04-11T09:05:49.440Z,1010.97
2019-04-11T09:06:49.503Z,1010.97
2019-04-11T09:07:49.870Z,1010.89
2019-04-11T09:08:49.663Z,1010.97
2019-04-11T09:09:49.700Z,1010.99
2019-04-11T09:10:50.690Z,1011.08
2019-04-11T09:11:49.815Z,1011.12
2019-04-11T09:12:50.883Z,1011.02
2019-04-11T09:13:49.882Z,1011.06
2019-04-11T09:14:50.593Z,1010.99
2019-04-11T09:15:50.822Z,1010.98
2019-04-11T09:16:50.052Z,1011.06
2019-04-11T09:17:58.933Z,1011.03
2019-04-11T09:18:50.283Z,1011.07
2019-04-11T09:19:51.392Z,1011.01
2019-04-11T09:20:50.269Z,1011.01
2019-04-11T09:21:50.826Z,1011.03
2019-04-11T09:22:50.385Z,1010.98
2019-04-11T09:23:50.435Z,1011.12
2019-04-11T09:24:50.612Z,1011.09
2019-04-11T09:25:53.240Z,1011.07
2019-04-11T09:26:50.600Z,1011.10
2019-04-11T09:27:51.032Z,1011.07
2019-04-11T09:28:51.587Z,1010.98
2019-04-11T09:29:50.767Z,1011.04
2019-04-11T09:30:50.821Z,1010.97
2019-04-11T09:31:51.714Z,1011.00
2019-04-11T09:32:50.937Z,1011.03
2019-04-11T09:33:51.042Z,1011.03
2019-04-11T09:34:52.186Z,1011.00
2019-04-11T09:35:51.303Z,1010.99
2019-04-11T09:36:51.365Z,1011.04
2019-04-11T09:37:51.799Z,1011.03
2019-04-11T09:38:51.290Z,1010.90
2019-04-11T09:39:51.321Z,1010.97
2019-04-11T09:40:52.115Z,1010.96
2019-04-11T09:41:52.417Z,1010.95
2019-04-11T09:42:51.531Z,1010.86
2019-04-11T09:43:52.615Z,1010.87
2019-04-11T09:44:51.617Z,1010.88
2019-04-11T09:45:52.584Z,1010.90
2019-04-11T09:46:51.713Z,1010.87
2019-04-11T09:47:51.955Z,1010.89
2019-04-11T09:48:51.833Z,1010.95
2019-04-11T09:49:51.876Z,1010.89
2019-04-11T09:50:52.987Z,1010.87
2019-04-11T09:51:52.079Z,1010.82
2019-04-11T09:52:54.398Z,1010.72
2019-04-11T09:53:52.921Z,1010.73
2019-04-11T09:54:52.622Z,1010.78
2019-04-11T09:55:52.218Z,1010.87
2019-04-11T09:56:52.266Z,1010.86
2019-04-11T09:57:52.598Z,1010.88
2019-04-11T09:58:52.377Z,1010.80
2019-04-11T09:59:52.433Z,1010.81
2019-04-11T10:00:52.931Z,1010.87
2019-04-11T10:01:52.548Z,1010.83
2019-04-11T10:02:52.775Z,1010.86
2019-04-11T10:03:52.954Z,1010.88
2019-04-11T10:04:54.307Z,1010.89
2019-04-11T10:05:53.093Z,1010.86
2019-04-11T10:06:53.229Z,1010.82
2019-04-11T10:07:52.878Z,1010.78
2019-04-11T10:08:53.192Z,1010.83
2019-04-11T10:09:54.191Z,1010.87
2019-04-11T10:10:53.334Z,1010.81
2019-04-11T10:11:53.118Z,1010.83
2019-04-11T10:12:54.201Z,1010.92
2019-04-11T10:13:53.346Z,1010.92
2019-04-11T10:14:53.638Z,1010.85
2019-04-11T10:15:53.655Z,1010.94
2019-04-11T10:16:53.393Z,1010.82
2019-04-11T10:17:54.758Z,1010.89
2019-04-11T10:18:53.677Z,1010.87
2019-04-11T10:19:54.136Z,1010.84
2019-04-11T10:20:53.606Z,1010.83
2019-04-11T10:21:54.379Z,1010.85
2019-04-11T10:22:54.429Z,1010.85
2019-04-11T10:23:53.773Z,1010.90
2019-04-11T10:24:54.784Z,1010.89
2019-04-11T10:25:53.887Z,1010.87
2019-04-11T10:26:54.023Z,1010.77
2019-04-11T10:27:55.161Z,1010.90
2019-04-11T10:28:54.054Z,1010.92
2019-04-11T10:29:54.690Z,1010.84
2019-04-11T10:30:54.167Z,1010.91
2019-04-11T10:31:54.859Z,1010.95
2019-04-11T10:32:55.296Z,1011.04
2019-04-11T10:33:55.427Z,1011.04
2019-04-11T10:34:54.390Z,1010.98
2019-04-11T10:35:54.542Z,1010.89
2019-04-11T10:36:55.709Z,1010.88
2019-04-11T10:37:54.559Z,1011.18
2019-04-11T10:38:55.097Z,1011.58
2019-04-11T10:39:54.674Z,1012.14
2019-04-11T10:40:54.732Z,1012.04
2019-04-11T10:41:55.965Z,1012.30
2019-04-11T10:42:55.896Z,1012.30
2019-04-11T10:43:54.903Z,1012.31
2019-04-11T10:44:56.172Z,1012.36
2019-04-11T10:45:55.288Z,1012.31
2019-04-11T10:46:55.757Z,1012.44
2019-04-11T10:47:55.966Z,1012.46
2019-04-11T10:48:55.230Z,1012.48
2019-04-11T10:49:55.252Z,1012.47
2019-04-11T10:50:56.182Z,1012.54
2019-04-11T10:51:56.046Z,1012.48
2019-04-11T10:52:55.430Z,1012.48
2019-04-11T10:53:55.496Z,1012.51
2019-04-11T10:54:55.549Z,1012.50
2019-04-11T10:55:55.767Z,1012.56
2019-04-11T10:56:55.821Z,1012.58
2019-04-11T10:57:56.187Z,1012.62
2019-04-11T10:58:55.797Z,1012.62
2019-04-11T10:59:56.583Z,1012.67
2019-04-11T11:00:55.912Z,1012.63
2019-04-11T11:01:56.122Z,1012.60
2019-04-11T11:02:56.038Z,1012.60
2019-04-11T11:03:56.095Z,1012.59
2019-04-11T11:04:56.864Z,1012.57
2019-04-11T11:05:56.216Z,1012.60
2019-04-11T11:06:56.279Z,1012.57
2019-04-11T11:07:57.163Z,1012.54
2019-04-11T11:08:57.375Z,1012.61
2019-04-11T11:09:56.721Z,1012.61
2019-04-11T11:10:57.692Z,1012.46
2019-04-11T11:11:56.835Z,1012.57
2019-04-11T11:12:57.295Z,1012.66
2019-04-11T11:13:56.712Z,1012.59
2019-04-11T11:14:56.774Z,1012.57
2019-04-11T11:15:57.969Z,1012.52
2019-04-11T11:16:56.903Z,1012.38
2019-04-11T11:18:27.215Z,1012.45
2019-04-11T11:19:24.605Z,1012.40
2019-04-11T11:20:08.540Z,1012.37
2019-04-11T11:21:00.847Z,1012.38
2019-04-11T11:21:59.872Z,1012.35
2019-04-11T11:22:57.274Z,1012.29
2019-04-11T11:23:58.489Z,1012.33
2019-04-11T11:24:58.057Z,1012.29
2019-04-11T11:26:41.054Z,1012.24
2019-04-11T11:27:39.967Z,1012.22
2019-04-11T11:28:41.046Z,1012.21
2019-04-11T11:29:40.439Z,1012.23
2019-04-11T11:30:40.165Z,1012.24
2019-04-11T11:31:40.760Z,1012.26
2019-04-11T11:32:41.179Z,1012.23
2019-04-11T11:33:40.608Z,1012.19
2019-04-11T11:34:41.104Z,1012.21
2019-04-11T11:35:42.485Z,1012.22
2019-04-11T11:36:41.624Z,1012.16
2019-04-11T11:37:41.622Z,1012.16
2019-04-11T11:38:41.823Z,1012.21
2019-04-11T11:39:41.412Z,1012.25
2019-04-11T11:40:41.637Z,1012.26
2019-04-11T11:41:40.915Z,1012.27
2019-04-11T11:42:42.098Z,1012.16
2019-04-11T11:43:41.249Z,1012.10
2019-04-11T11:44:41.276Z,1012.04
2019-04-11T11:45:41.627Z,1012.10
2019-04-11T11:46:42.542Z,1012.09
2019-04-11T11:47:41.686Z,1012.04
2019-04-11T11:48:41.754Z,1012.03
2019-04-11T11:49:53.382Z,1012.12
2019-04-11T11:50:42.619Z,1012.17
2019-04-11T11:51:41.586Z,1012.13
2019-04-11T11:52:42.823Z,1012.15
2019-04-11T11:53:42.596Z,1012.14
2019-04-11T11:54:41.825Z,1012.22
2019-04-11T11:55:41.741Z,1012.06
2019-04-11T11:56:42.427Z,1012.21
2019-04-11T11:57:42.705Z,1012.24
2019-04-11T11:58:43.515Z,1012.33
2019-04-11T11:59:42.840Z,1012.32
2019-04-11T12:00:42.146Z,1012.42
2019-04-11T12:01:45.313Z,1012.43
2019-04-11T12:02:42.400Z,1012.42
2019-04-11T12:03:42.476Z,1012.53
2019-04-11T12:04:42.315Z,1012.46
2019-04-11T12:05:47.108Z,1012.40
2019-04-11T12:06:43.024Z,1012.38
2019-04-11T12:07:43.085Z,1012.42
2019-04-11T12:08:46.625Z,1012.46
2019-04-11T12:09:42.632Z,1012.38